Time;durP1;ratioP1;P1;durP2;ratioP2;P2;SDS_P1;SDS_P2;PMS_P1;PMS_P2;Temp;Humidity;BMP_temperature;BMP_pressure;BME280_temperature;BME280_humidity;BME280_pressure;Samples;Min_cycle;Max_cycle;Signal;HPM_P1;HPM_P2
2024/01/18 00:01:32;;;;;;;1.80;0.60;;;10.10;14.10;;;;;;4954734;28;20227;-69
2024/01/18 00:04:01;;;;;;;2.33;0.90;;;10.20;13.20;;;;;;4954989;29;20496;-69
2024/01/18 00:06:27;;;;;;;2.07;0.60;;;10.20;12.70;;;;;;4954541;28;20310;-69
2024/01/18 00:08:52;;;;;;;1.70;0.60;;;10.20;13.00;;;;;;4954347;28;20830;-69
2024/01/18 00:11:18;;;;;;;1.40;0.50;;;10.10;12.70;;;;;;4954524;28;20430;-69
2024/01/18 00:13:44;;;;;;;1.70;0.83;;;10.10;12.10;;;;;;4954368;29;20281;-67
2024/01/18 00:16:10;;;;;;;2.47;0.77;;;10.00;12.40;;;;;;4954849;28;20189;-67
2024/01/18 00:18:35;;;;;;;1.60;0.60;;;9.90;13.10;;;;;;4954245;29;20422;-67
2024/01/18 00:21:01;;;;;;;2.37;0.97;;;9.80;13.70;;;;;;4954278;28;20210;-68
2024/01/18 00:23:27;;;;;;;1.50;0.50;;;9.80;14.70;;;;;;4953963;28;20182;-68
2024/01/18 00:25:52;;;;;;;3.10;1.00;;;9.80;14.70;;;;;;4954320;29;20472;-68
2024/01/18 00:28:18;;;;;;;2.10;0.77;;;9.80;15.10;;;;;;4954046;29;20185;-67
2024/01/18 00:30:43;;;;;;;2.27;0.73;;;9.80;15.00;;;;;;4953957;28;20206;-67
2024/01/18 00:33:09;;;;;;;1.80;0.80;;;9.90;14.80;;;;;;4953417;28;20177;-68
2024/01/18 00:35:34;;;;;;;2.97;1.40;;;10.00;14.10;;;;;;4954326;28;20213;-68
2024/01/18 00:38:00;;;;;;;1.50;0.50;;;10.00;13.80;;;;;;4954045;29;20245;-69
2024/01/18 00:40:25;;;;;;;1.60;0.50;;;10.10;13.60;;;;;;4953863;28;20265;-66
2024/01/18 00:42:51;;;;;;;2.23;0.50;;;10.10;14.50;;;;;;4954245;29;20236;-68
2024/01/18 00:45:16;;;;;;;1.63;0.50;;;10.20;13.50;;;;;;4954159;29;20552;-67
2024/01/18 00:47:42;;;;;;;1.80;0.73;;;10.20;13.40;;;;;;4953782;29;20175;-68
2024/01/18 00:50:08;;;;;;;1.77;0.70;;;10.20;13.30;;;;;;4953609;28;20190;-68
2024/01/18 00:52:33;;;;;;;2.60;0.80;;;10.20;13.00;;;;;;4953645;29;20186;-68
2024/01/18 00:54:59;;;;;;;2.17;0.60;;;10.30;13.30;;;;;;4953848;29;20725;-67
2024/01/18 00:57:25;;;;;;;3.63;0.70;;;10.40;12.70;;;;;;4953881;28;20175;-68
2024/01/18 00:59:51;;;;;;;1.70;0.53;;;10.40;12.90;;;;;;4953410;28;20178;-68
2024/01/18 01:02:16;;;;;;;5.80;1.30;;;10.50;11.80;;;;;;4953962;28;20180;-68
2024/01/18 01:04:42;;;;;;;6.23;1.77;;;10.50;11.80;;;;;;4953505;29;20438;-68
2024/01/18 01:07:08;;;;;;;3.20;1.40;;;10.50;11.70;;;;;;4953574;29;20232;-67
2024/01/18 01:09:33;;;;;;;4.50;1.50;;;10.60;11.40;;;;;;4953423;29;20177;-67
2024/01/18 01:11:59;;;;;;;2.40;0.90;;;10.60;11.30;;;;;;4953795;29;20227;-69
2024/01/18 01:14:24;;;;;;;1.60;0.60;;;10.50;11.50;;;;;;4953578;29;20229;-68
2024/01/18 01:16:50;;;;;;;3.50;0.80;;;10.50;10.10;;;;;;4953606;29;20178;-68
2024/01/18 01:19:15;;;;;;;2.60;0.80;;;10.50;10.10;;;;;;4953751;29;20213;-69
2024/01/18 01:21:41;;;;;;;1.83;0.70;;;10.40;9.60;;;;;;4953473;28;20236;-67
2024/01/18 01:24:07;;;;;;;1.90;0.80;;;10.30;9.60;;;;;;4953457;29;20209;-67
2024/01/18 01:26:33;;;;;;;2.37;1.17;;;10.20;9.80;;;;;;4953714;29;20286;-68
2024/01/18 01:28:59;;;;;;;1.73;0.63;;;10.00;10.60;;;;;;4953378;28;20210;-68
2024/01/18 01:31:24;;;;;;;1.87;0.80;;;9.90;12.80;;;;;;4953404;28;20468;-68
2024/01/18 01:33:50;;;;;;;1.63;0.70;;;9.90;13.70;;;;;;4953202;29;20689;-68
2024/01/18 01:36:16;;;;;;;3.10;0.80;;;9.80;13.80;;;;;;4953485;29;20213;-68
2024/01/18 01:38:41;;;;;;;3.60;1.27;;;9.80;14.60;;;;;;4953225;28;20258;-68
2024/01/18 01:41:07;;;;;;;1.97;0.70;;;9.80;14.40;;;;;;4953247;28;20665;-68
2024/01/18 01:43:32;;;;;;;1.80;0.83;;;9.70;14.60;;;;;;4952969;28;20268;-68
2024/01/18 01:45:58;;;;;;;1.60;0.60;;;9.60;16.00;;;;;;4957019;29;20201;-68
2024/01/18 01:48:24;;;;;;;2.20;1.03;;;9.50;16.40;;;;;;4956724;29;20182;-68
2024/01/18 01:50:50;;;;;;;1.97;0.70;;;9.40;16.30;;;;;;4971554;28;20245;-68
2024/01/18 01:53:18;;;;;;;2.60;0.90;;;9.40;17.10;;;;;;4956440;29;20418;-68
2024/01/18 01:55:45;;;;;;;1.60;0.63;;;9.20;17.40;;;;;;4956697;29;20413;-68
2024/01/18 01:58:14;;;;;;;4.83;0.73;;;9.10;18.50;;;;;;4956538;29;20444;-68
2024/01/18 02:00:40;;;;;;;2.23;1.07;;;9.00;19.90;;;;;;4954903;28;20981;-68
2024/01/18 02:03:05;;;;;;;2.77;1.17;;;9.00;22.00;;;;;;4956344;29;20418;-68
2024/01/18 02:05:31;;;;;;;3.00;0.67;;;9.10;22.80;;;;;;4956646;29;20739;-69
2024/01/18 02:07:57;;;;;;;2.27;0.80;;;9.10;22.80;;;;;;4956327;29;20192;-69
2024/01/18 02:10:23;;;;;;;2.47;1.00;;;9.10;22.00;;;;;;4956268;28;20476;-68
2024/01/18 02:12:52;;;;;;;1.93;0.87;;;9.20;22.80;;;;;;4956580;28;20193;-68
2024/01/18 02:15:18;;;;;;;2.37;0.80;;;9.30;23.80;;;;;;4956522;29;20508;-68
2024/01/18 02:17:44;;;;;;;6.93;2.07;;;9.50;23.80;;;;;;4956378;28;20489;-69
2024/01/18 02:20:10;;;;;;;3.27;1.30;;;9.50;23.00;;;;;;4956114;28;20585;-68
2024/01/18 02:22:41;;;;;;;2.93;1.23;;;9.50;23.00;;;;;;4956441;29;20181;-68
2024/01/18 02:25:22;;;;;;;2.67;1.30;;;9.60;23.60;;;;;;4956159;29;20984;-68
2024/01/18 02:27:47;;;;;;;2.90;1.30;;;9.60;23.80;;;;;;4956072;29;20410;-68
2024/01/18 02:30:13;;;;;;;4.23;1.00;;;9.60;23.10;;;;;;4955975;28;20820;-68
2024/01/18 02:32:39;;;;;;;2.10;1.20;;;9.60;23.10;;;;;;4956259;29;20476;-68
2024/01/18 02:35:05;;;;;;;2.33;0.77;;;9.70;23.10;;;;;;4955821;28;20193;-68
2024/01/18 02:37:31;;;;;;;3.20;0.83;;;9.70;21.80;;;;;;4955921;28;20237;-68
2024/01/18 02:39:57;;;;;;;1.73;0.83;;;9.70;19.90;;;;;;4955783;28;20800;-69
2024/01/18 02:42:22;;;;;;;2.43;0.90;;;9.70;19.90;;;;;;4955895;29;20427;-68
2024/01/18 02:44:48;;;;;;;2.07;0.80;;;9.70;19.30;;;;;;4955703;29;20562;-68
2024/01/18 02:47:14;;;;;;;1.50;0.50;;;9.70;19.30;;;;;;4955817;29;20752;-69
2024/01/18 02:49:40;;;;;;;1.83;0.77;;;9.70;18.90;;;;;;4955478;28;20414;-68
2024/01/18 02:52:06;;;;;;;1.57;0.50;;;9.70;19.30;;;;;;4954632;29;20688;-68
2024/01/18 02:54:31;;;;;;;2.07;0.77;;;9.70;18.90;;;;;;4955458;28;20190;-68
2024/01/18 02:56:57;;;;;;;1.70;0.60;;;9.70;18.90;;;;;;4955741;29;20856;-68
2024/01/18 02:59:22;;;;;;;1.40;0.50;;;9.60;18.90;;;;;;4955458;29;20606;-68
2024/01/18 03:01:48;;;;;;;1.90;0.70;;;9.60;19.00;;;;;;4955280;28;20226;-68
2024/01/18 03:04:14;;;;;;;2.37;0.90;;;9.60;19.20;;;;;;4955434;29;20276;-68
2024/01/18 03:06:39;;;;;;;2.20;0.80;;;9.50;19.50;;;;;;4955321;29;20288;-68
2024/01/18 03:09:05;;;;;;;1.70;0.80;;;9.40;20.40;;;;;;4955350;28;20646;-68
2024/01/18 03:11:30;;;;;;;1.80;0.63;;;9.40;20.70;;;;;;4955356;28;20279;-68
2024/01/18 03:13:56;;;;;;;1.40;0.50;;;9.40;19.90;;;;;;4955457;28;20177;-67
2024/01/18 03:16:22;;;;;;;1.90;1.03;;;9.40;21.10;;;;;;4956171;29;20190;-68
2024/01/18 03:18:47;;;;;;;3.27;0.90;;;9.40;20.80;;;;;;4955498;29;20182;-68
2024/01/18 03:21:13;;;;;;;2.73;0.60;;;9.30;21.80;;;;;;4955463;28;20677;-67
2024/01/18 03:23:40;;;;;;;1.50;0.60;;;9.40;22.90;;;;;;4955129;29;20788;-67
2024/01/18 03:26:05;;;;;;;1.53;0.50;;;9.30;23.90;;;;;;4955348;29;20461;-67
2024/01/18 03:28:31;;;;;;;1.73;0.73;;;9.30;24.60;;;;;;4955404;29;20445;-68
2024/01/18 03:30:57;;;;;;;1.40;0.50;;;9.30;25.20;;;;;;4954717;28;20228;-67
2024/01/18 03:33:23;;;;;;;1.70;0.70;;;9.20;25.70;;;;;;4954716;28;20174;-67
2024/01/18 03:35:48;;;;;;;2.27;0.90;;;9.10;26.90;;;;;;4954864;29;20789;-67
2024/01/18 03:38:14;;;;;;;1.60;0.70;;;9.10;27.30;;;;;;4955082;29;20205;-67
2024/01/18 03:40:39;;;;;;;1.80;0.60;;;9.00;28.30;;;;;;4954963;28;20280;-67
2024/01/18 03:43:05;;;;;;;1.73;0.80;;;9.00;28.50;;;;;;4955381;29;20688;-68
2024/01/18 03:45:31;;;;;;;2.50;1.20;;;9.00;28.60;;;;;;4956652;29;20572;-68
2024/01/18 03:47:56;;;;;;;2.00;0.73;;;9.10;28.40;;;;;;4956573;29;20182;-67
2024/01/18 03:50:22;;;;;;;3.10;1.10;;;9.10;28.30;;;;;;4956392;28;20879;-68
2024/01/18 03:52:48;;;;;;;1.40;0.50;;;9.10;27.70;;;;;;4956429;29;20264;-68
2024/01/18 03:55:13;;;;;;;3.10;0.80;;;9.20;27.50;;;;;;4954574;29;20221;-68
2024/01/18 03:57:40;;;;;;;3.20;1.00;;;9.20;27.00;;;;;;4954494;29;20661;-68
2024/01/18 04:00:06;;;;;;;4.23;0.70;;;9.20;26.90;;;;;;4953129;28;20229;-68
2024/01/18 04:02:31;;;;;;;3.10;0.83;;;9.20;26.90;;;;;;4954567;29;20418;-68
2024/01/18 04:04:57;;;;;;;1.80;0.80;;;9.20;26.00;;;;;;4954264;29;20439;-67
2024/01/18 04:07:22;;;;;;;1.80;0.77;;;9.20;25.70;;;;;;4953557;28;20691;-67
2024/01/18 04:09:48;;;;;;;1.77;0.57;;;9.30;25.00;;;;;;4954181;28;20566;-67
2024/01/18 04:12:14;;;;;;;1.70;0.73;;;9.20;24.80;;;;;;4954352;28;20254;-68
2024/01/18 04:14:43;;;;;;;3.80;1.03;;;9.30;24.50;;;;;;4954025;29;20196;-67
2024/01/18 04:17:11;;;;;;;1.60;0.80;;;9.30;24.30;;;;;;4954119;28;20579;-68
2024/01/18 04:19:38;;;;;;;1.50;0.60;;;9.30;23.90;;;;;;4954242;28;20442;-67
2024/01/18 04:22:03;;;;;;;3.10;0.87;;;9.30;23.80;;;;;;4954172;28;20417;-68
2024/01/18 04:24:29;;;;;;;2.10;0.77;;;9.30;22.90;;;;;;4953887;29;20505;-67
2024/01/18 04:26:55;;;;;;;1.70;0.60;;;9.30;23.40;;;;;;4953912;29;20213;-68
2024/01/18 04:29:20;;;;;;;1.60;0.60;;;9.30;22.90;;;;;;4953995;29;20549;-67
2024/01/18 04:31:46;;;;;;;2.57;0.60;;;9.20;22.80;;;;;;4952473;28;20224;-68
2024/01/18 04:34:12;;;;;;;1.80;0.50;;;9.30;23.30;;;;;;4953704;28;20496;-68
2024/01/18 04:36:38;;;;;;;2.17;0.70;;;9.20;23.40;;;;;;4954003;29;20604;-67
2024/01/18 04:39:03;;;;;;;1.93;0.83;;;9.20;24.00;;;;;;4953671;29;20457;-68
2024/01/18 04:41:29;;;;;;;2.67;0.90;;;9.20;23.80;;;;;;4953573;28;20233;-67
2024/01/18 04:43:54;;;;;;;1.57;0.60;;;9.20;24.10;;;;;;4953420;29;20178;-67
2024/01/18 04:46:22;;;;;;;2.40;0.90;;;9.10;24.50;;;;;;4953456;28;20206;-67
2024/01/18 04:48:48;;;;;;;1.50;0.60;;;9.10;24.60;;;;;;4953694;28;20233;-68
2024/01/18 04:51:13;;;;;;;1.60;0.63;;;9.10;24.70;;;;;;4952148;28;20444;-67
2024/01/18 04:53:39;;;;;;;1.97;0.70;;;9.10;24.40;;;;;;4953520;29;20186;-68
2024/01/18 04:56:05;;;;;;;1.80;0.70;;;9.20;23.90;;;;;;4952232;29;20204;-68
2024/01/18 04:58:31;;;;;;;1.60;0.70;;;9.10;24.20;;;;;;4953522;29;21007;-68
2024/01/18 05:00:57;;;;;;;2.43;0.70;;;9.10;24.50;;;;;;4953296;28;20548;-67
2024/01/18 05:03:22;;;;;;;1.60;0.70;;;9.10;25.40;;;;;;4953519;29;20283;-68
2024/01/18 05:05:48;;;;;;;2.37;1.27;;;9.10;26.10;;;;;;4953481;29;20204;-68
2024/01/18 05:08:14;;;;;;;2.03;0.70;;;9.00;26.80;;;;;;4953521;29;20258;-68
2024/01/18 05:10:39;;;;;;;2.83;1.80;;;9.00;28.00;;;;;;4953579;28;20546;-68
2024/01/18 05:13:05;;;;;;;3.90;1.23;;;8.90;29.30;;;;;;4953303;29;20186;-68
2024/01/18 05:15:30;;;;;;;2.33;0.90;;;8.90;29.80;;;;;;4953438;29;20193;-68
2024/01/18 05:17:57;;;;;;;2.83;1.10;;;8.80;29.90;;;;;;4954361;28;20173;-68
2024/01/18 05:20:23;;;;;;;3.60;1.30;;;8.80;30.90;;;;;;4957245;28;20200;-68
2024/01/18 05:22:48;;;;;;;2.80;0.80;;;8.80;30.90;;;;;;4957369;28;20976;-68
2024/01/18 05:25:14;;;;;;;2.80;0.80;;;8.80;30.90;;;;;;4957353;29;20196;-68
2024/01/18 05:27:40;;;;;;;2.00;0.90;;;8.80;30.90;;;;;;4957208;29;20606;-68
2024/01/18 05:30:07;;;;;;;1.83;0.90;;;8.80;31.20;;;;;;4956943;28;20204;-68
2024/01/18 05:32:33;;;;;;;4.37;0.93;;;8.80;31.50;;;;;;4957068;29;20437;-67
2024/01/18 05:34:59;;;;;;;1.67;0.70;;;8.80;30.90;;;;;;4956896;29;20452;-67
2024/01/18 05:37:24;;;;;;;1.70;0.70;;;8.80;30.90;;;;;;4956969;29;20646;-68
2024/01/18 05:39:50;;;;;;;2.13;0.70;;;8.80;30.90;;;;;;4956785;28;20541;-69
2024/01/18 05:42:20;;;;;;;2.10;0.80;;;8.80;30.90;;;;;;4957552;28;20217;-67
2024/01/18 05:44:46;;;;;;;1.60;0.60;;;8.80;31.30;;;;;;4956913;29;20193;-67
2024/01/18 05:47:12;;;;;;;1.63;0.80;;;8.80;31.70;;;;;;4956783;28;20559;-67
2024/01/18 05:49:38;;;;;;;1.60;0.67;;;8.80;31.80;;;;;;4956747;28;20502;-67
2024/01/18 05:52:05;;;;;;;1.90;0.70;;;8.70;31.60;;;;;;4956902;28;20422;-68
2024/01/18 05:54:30;;;;;;;1.93;0.97;;;8.80;31.20;;;;;;4955368;28;20480;-68
2024/01/18 05:56:56;;;;;;;1.80;0.80;;;8.80;30.90;;;;;;4956673;28;20421;-68
2024/01/18 05:59:21;;;;;;;1.77;0.80;;;8.80;30.90;;;;;;4956761;29;20205;-68
2024/01/18 06:01:47;;;;;;;1.53;0.60;;;8.80;30.90;;;;;;4955322;28;20222;-68
2024/01/18 06:04:13;;;;;;;2.30;0.93;;;8.80;30.90;;;;;;4956429;28;20269;-68
2024/01/18 06:06:39;;;;;;;1.50;0.60;;;8.80;29.40;;;;;;4957021;29;20724;-68
2024/01/18 06:09:05;;;;;;;4.00;0.90;;;8.80;29.60;;;;;;4956337;28;20448;-68
2024/01/18 06:11:30;;;;;;;3.40;1.07;;;8.80;28.30;;;;;;4956257;28;20996;-68
2024/01/18 06:13:56;;;;;;;2.37;0.70;;;8.80;28.00;;;;;;4956197;28;20178;-68
2024/01/18 06:16:21;;;;;;;3.20;0.93;;;8.80;28.30;;;;;;4956452;29;20325;-68
2024/01/18 06:18:47;;;;;;;1.50;0.60;;;8.80;28.30;;;;;;4956167;29;20185;-68
2024/01/18 06:21:12;;;;;;;1.50;0.63;;;8.80;28.10;;;;;;4956139;28;20206;-68
2024/01/18 06:23:39;;;;;;;2.53;0.60;;;8.70;27.90;;;;;;4955978;28;20268;-68
2024/01/18 06:26:10;;;;;;;2.83;1.00;;;8.80;28.00;;;;;;4955955;28;20634;-68
2024/01/18 06:28:39;;;;;;;2.10;0.93;;;8.80;28.20;;;;;;4956165;29;20501;-68
2024/01/18 06:31:05;;;;;;;1.60;0.80;;;8.80;27.40;;;;;;4953787;28;20510;-68
2024/01/18 06:33:31;;;;;;;2.80;1.13;;;8.70;27.70;;;;;;4955677;28;20441;-68
2024/01/18 06:35:56;;;;;;;1.93;0.93;;;8.70;27.40;;;;;;4955911;29;20421;-68
2024/01/18 06:38:22;;;;;;;1.97;0.93;;;8.80;27.60;;;;;;4955786;28;20189;-68
2024/01/18 06:40:48;;;;;;;2.10;0.80;;;8.80;27.30;;;;;;4955663;28;20537;-68
2024/01/18 06:43:15;;;;;;;2.10;0.70;;;8.80;26.70;;;;;;4955810;29;20325;-68
2024/01/18 06:45:40;;;;;;;1.50;0.60;;;8.80;25.40;;;;;;4955670;28;20457;-68
2024/01/18 06:48:06;;;;;;;1.93;0.70;;;8.80;25.10;;;;;;4955886;29;20417;-69
2024/01/18 06:50:35;;;;;;;4.60;0.90;;;8.90;24.70;;;;;;4955707;28;20198;-68
2024/01/18 06:53:02;;;;;;;3.23;0.80;;;8.90;24.80;;;;;;4955675;28;20261;-68
2024/01/18 06:55:28;;;;;;;2.30;0.80;;;8.90;24.30;;;;;;4955930;28;20913;-68
2024/01/18 06:57:54;;;;;;;1.40;0.50;;;8.90;24.60;;;;;;4955663;29;20441;-68
2024/01/18 07:00:23;;;;;;;2.97;0.70;;;8.90;23.20;;;;;;4956197;28;20449;-68
2024/01/18 07:02:49;;;;;;;1.93;0.57;;;9.00;23.00;;;;;;4954705;29;20661;-68
2024/01/18 07:05:14;;;;;;;2.10;0.97;;;9.00;23.20;;;;;;4955278;29;20460;-68
2024/01/18 07:07:41;;;;;;;3.03;1.00;;;9.10;22.70;;;;;;4955439;29;20761;-69
2024/01/18 07:10:07;;;;;;;2.27;1.30;;;9.10;21.50;;;;;;4955615;28;20205;-69
2024/01/18 07:12:33;;;;;;;2.50;0.90;;;9.10;20.90;;;;;;4955587;29;20921;-68
2024/01/18 07:14:59;;;;;;;1.60;0.60;;;9.20;19.40;;;;;;4954948;29;20784;-68
2024/01/18 07:17:26;;;;;;;1.63;0.70;;;9.20;18.90;;;;;;4955359;28;20433;-68
2024/01/18 07:19:52;;;;;;;4.80;0.90;;;9.20;17.60;;;;;;4955277;28;20426;-69
2024/01/18 07:22:18;;;;;;;2.47;1.03;;;9.30;17.90;;;;;;4955128;29;20786;-69
2024/01/18 07:24:44;;;;;;;3.00;1.40;;;9.30;17.80;;;;;;4955469;28;20421;-69
2024/01/18 07:27:10;;;;;;;3.00;1.17;;;9.40;17.10;;;;;;4955984;29;20213;-69
2024/01/18 07:29:38;;;;;;;2.60;1.00;;;9.40;16.80;;;;;;4956640;28;20178;-68
2024/01/18 07:32:04;;;;;;;2.30;1.17;;;9.40;17.10;;;;;;4956271;28;20277;-68
2024/01/18 07:34:33;;;;;;;2.20;0.80;;;9.50;16.10;;;;;;4956079;28;20446;-68
2024/01/18 07:36:59;;;;;;;3.10;0.97;;;9.50;16.20;;;;;;4955946;28;20311;-69
2024/01/18 07:39:24;;;;;;;1.53;0.53;;;9.50;16.10;;;;;;4955736;29;20425;-69
2024/01/18 07:41:50;;;;;;;1.93;0.87;;;9.50;16.30;;;;;;4955482;28;20281;-68
2024/01/18 07:44:15;;;;;;;2.40;1.00;;;9.50;15.50;;;;;;4955345;28;20190;-69
2024/01/18 07:46:41;;;;;;;2.00;1.00;;;9.50;16.20;;;;;;4955835;28;20252;-68
2024/01/18 07:49:06;;;;;;;3.07;0.80;;;9.50;16.20;;;;;;4953884;29;20182;-68
2024/01/18 07:51:32;;;;;;;2.17;0.80;;;9.50;16.40;;;;;;4955048;28;20198;-68
2024/01/18 07:53:57;;;;;;;2.73;0.97;;;9.60;16.90;;;;;;4955017;29;20265;-69
2024/01/18 07:56:24;;;;;;;2.80;1.53;;;9.60;15.40;;;;;;4955357;29;20238;-68
2024/01/18 07:58:49;;;;;;;1.70;0.60;;;9.60;15.00;;;;;;4955628;29;20605;-68
2024/01/18 08:01:16;;;;;;;2.43;1.00;;;9.70;15.00;;;;;;4955326;28;20484;-68
2024/01/18 08:03:42;;;;;;;2.53;0.83;;;9.70;14.60;;;;;;4954854;28;20241;-68
2024/01/18 08:06:07;;;;;;;2.93;1.13;;;9.70;14.60;;;;;;4954422;29;20898;-68
2024/01/18 08:08:33;;;;;;;2.93;1.10;;;9.70;14.60;;;;;;4954496;29;20183;-68
2024/01/18 08:10:58;;;;;;;2.50;1.00;;;9.70;14.60;;;;;;4954538;28;20197;-69
2024/01/18 08:13:24;;;;;;;6.37;3.07;;;9.70;14.60;;;;;;4954152;29;20363;-68
2024/01/18 08:15:50;;;;;;;7.30;2.07;;;9.70;14.60;;;;;;4954332;29;20182;-68
2024/01/18 08:18:17;;;;;;;1.93;1.00;;;9.70;15.20;;;;;;4954341;29;20261;-68
2024/01/18 08:20:43;;;;;;;5.47;1.50;;;9.80;14.70;;;;;;4953911;28;20448;-68
2024/01/18 08:23:10;;;;;;;3.10;1.57;;;9.80;14.70;;;;;;4954164;28;20943;-68
2024/01/18 08:25:36;;;;;;;2.97;1.40;;;9.90;14.80;;;;;;4953609;29;20457;-68
2024/01/18 08:28:01;;;;;;;3.80;1.23;;;9.90;15.90;;;;;;4953633;29;20423;-68
2024/01/18 08:30:27;;;;;;;3.10;1.60;;;10.00;15.20;;;;;;4953549;28;20300;-68
2024/01/18 08:32:53;;;;;;;2.47;1.17;;;10.00;15.20;;;;;;4953644;29;20273;-68
2024/01/18 08:35:18;;;;;;;4.03;1.73;;;10.10;14.20;;;;;;4953376;29;20606;-68
2024/01/18 08:37:45;;;;;;;2.70;1.40;;;10.20;14.80;;;;;;4953524;29;20253;-69
2024/01/18 08:40:12;;;;;;;2.47;1.00;;;10.20;13.30;;;;;;4953476;28;20559;-69
2024/01/18 08:42:37;;;;;;;2.43;1.40;;;10.30;13.40;;;;;;4953433;29;20473;-68
2024/01/18 08:45:04;;;;;;;2.67;1.40;;;10.30;14.00;;;;;;4953602;29;20417;-68
2024/01/18 08:47:29;;;;;;;2.93;1.30;;;10.40;12.70;;;;;;4953825;29;20225;-68
2024/01/18 08:49:55;;;;;;;2.60;1.10;;;10.30;12.90;;;;;;4951889;28;20446;-68
2024/01/18 08:52:21;;;;;;;2.03;1.17;;;10.40;12.90;;;;;;4953245;28;20572;-68
2024/01/18 08:54:47;;;;;;;1.80;0.80;;;10.40;12.60;;;;;;4953154;28;20298;-68
2024/01/18 08:57:12;;;;;;;1.90;0.77;;;10.60;12.50;;;;;;4953234;29;20431;-68
2024/01/18 08:59:38;;;;;;;4.07;1.00;;;10.70;10.10;;;;;;4953306;28;20269;-69
2024/01/18 09:02:03;;;;;;;1.60;0.70;;;10.70;10.10;;;;;;4953257;29;20196;-68
2024/01/18 09:04:29;;;;;;;1.80;0.67;;;10.80;10.20;;;;;;4952973;28;20191;-68
2024/01/18 09:06:55;;;;;;;2.50;0.90;;;10.70;10.70;;;;;;4953279;28;20677;-69
2024/01/18 09:09:21;;;;;;;1.50;0.50;;;10.60;11.80;;;;;;4953351;29;20435;-68
2024/01/18 09:11:46;;;;;;;1.90;0.63;;;10.60;12.70;;;;;;4953168;28;20672;-68
2024/01/18 09:14:12;;;;;;;2.27;0.50;;;10.70;12.60;;;;;;4952942;29;20187;-68
2024/01/18 09:16:38;;;;;;;1.50;0.50;;;10.90;12.80;;;;;;4953299;29;20192;-68
2024/01/18 09:19:03;;;;;;;1.80;0.60;;;11.10;11.70;;;;;;4953025;29;20185;-68
2024/01/18 09:21:29;;;;;;;1.80;0.60;;;11.00;11.50;;;;;;4953032;28;20303;-68
2024/01/18 09:23:54;;;;;;;1.50;0.50;;;11.10;11.00;;;;;;4953188;29;20190;-69
2024/01/18 09:26:20;;;;;;;2.23;0.87;;;10.90;10.30;;;;;;4953134;28;20216;-69
2024/01/18 09:28:45;;;;;;;3.03;1.30;;;11.00;10.40;;;;;;4953070;29;20574;-69
2024/01/18 09:31:12;;;;;;;3.03;1.00;;;11.10;10.40;;;;;;4953477;28;20201;-68
2024/01/18 09:33:38;;;;;;;7.10;1.00;;;11.20;9.50;;;;;;4953255;28;20180;-69
2024/01/18 09:36:05;;;;;;;1.90;0.70;;;11.20;10.50;;;;;;4953211;28;20435;-69
2024/01/18 09:38:31;;;;;;;1.80;0.80;;;11.30;9.60;;;;;;4953300;29;20200;-69
2024/01/18 09:41:03;;;;;;;1.40;0.50;;;11.40;9.30;;;;;;4952981;28;20439;-69
2024/01/18 09:43:35;;;;;;;1.70;0.70;;;11.40;9.60;;;;;;4952921;29;20591;-69
2024/01/18 09:46:04;;;;;;;2.20;0.67;;;11.50;10.20;;;;;;4952994;29;20469;-68
2024/01/18 09:48:30;;;;;;;2.03;0.87;;;11.60;9.60;;;;;;4952956;29;20475;-68
2024/01/18 09:50:57;;;;;;;4.33;2.67;;;11.80;8.80;;;;;;4952831;28;20808;-68
2024/01/18 09:53:23;;;;;;;1.60;0.60;;;11.90;7.80;;;;;;4952677;28;20504;-69
2024/01/18 09:55:52;;;;;;;1.70;0.70;;;12.10;6.80;;;;;;4953018;29;20948;-68
2024/01/18 09:58:19;;;;;;;2.07;0.80;;;12.10;6.70;;;;;;4953015;28;20606;-68
2024/01/18 10:00:51;;;;;;;1.97;0.63;;;12.10;6.10;;;;;;4952579;28;20465;-69
2024/01/18 10:03:17;;;;;;;1.40;0.40;;;12.10;6.20;;;;;;4952634;29;20459;-68
2024/01/18 10:05:43;;;;;;;1.60;0.50;;;12.00;5.70;;;;;;4954545;28;20499;-68
2024/01/18 10:08:09;;;;;;;1.70;0.67;;;12.00;6.40;;;;;;4956482;29;20178;-68
2024/01/18 10:10:34;;;;;;;1.93;0.50;;;11.90;6.50;;;;;;4956134;28;20450;-68
2024/01/18 10:13:02;;;;;;;1.60;0.57;;;11.80;6.60;;;;;;4956071;29;20186;-69
2024/01/18 10:15:32;;;;;;;2.87;1.80;;;;;;;;;;4956255;28;20610;-69
2024/01/18 10:17:57;;;;;;;3.43;1.67;;;9.30;1.00;;;;;;4956015;28;20893;-68
2024/01/18 10:20:23;;;;;;;2.77;1.90;;;7.60;2.80;;;;;;4955911;28;20464;-68
2024/01/18 10:22:49;;;;;;;3.43;1.80;;;6.50;11.20;;;;;;4956009;29;20182;-68
2024/01/18 10:25:16;;;;;;;3.47;1.90;;;5.70;16.60;;;;;;4955711;28;20402;-68
2024/01/18 10:27:44;;;;;;;2.83;1.33;;;5.40;20.40;;;;;;4955620;29;20926;-68
2024/01/18 10:30:11;;;;;;;2.57;1.40;;;4.90;20.10;;;;;;4955670;28;20436;-68
2024/01/18 10:32:41;;;;;;;2.60;1.40;;;4.20;23.00;;;;;;4955678;29;20425;-68
2024/01/18 10:35:20;;;;;;;3.00;1.60;;;3.90;27.60;;;;;;4955611;29;20416;-69
2024/01/18 10:37:47;;;;;;;4.15;1.55;;;3.60;28.20;;;;;;4955661;29;20408;-68
2024/01/18 10:40:19;;;;;;;2.72;1.40;;;3.20;29.10;;;;;;4955621;28;20525;-68
2024/01/18 10:42:46;;;;;;;1.77;1.20;;;3.00;32.90;;;;;;4955651;28;20310;-69
2024/01/18 10:45:12;;;;;;;2.50;0.95;;;2.70;36.20;;;;;;4955562;29;20260;-69
2024/01/18 10:47:38;;;;;;;1.97;1.20;;;2.60;36.20;;;;;;4955518;29;20805;-69
2024/01/18 10:50:05;;;;;;;1.80;1.00;;;;;;;;;;4955573;28;20237;-70
2024/01/18 10:52:31;;;;;;;2.03;0.90;;;2.40;36.70;;;;;;4955613;28;20188;-70
2024/01/18 10:54:58;;;;;;;3.58;1.00;;;2.30;36.90;;;;;;4955184;29;20272;-70
2024/01/18 10:57:24;;;;;;;2.33;1.17;;;2.30;36.50;;;;;;4955385;29;20194;-70
2024/01/18 10:59:52;;;;;;;2.03;1.00;;;2.20;37.00;;;;;;4953927;28;20181;-70
2024/01/18 11:02:18;;;;;;;2.05;1.05;;;2.20;36.40;;;;;;4955304;29;20177;-70
2024/01/18 11:04:46;;;;;;;3.10;1.55;;;2.20;37.50;;;;;;4955260;29;20176;-70
2024/01/18 11:07:13;;;;;;;1.77;0.90;;;2.20;37.30;;;;;;4955228;29;20287;-70
2024/01/18 11:09:39;;;;;;;1.70;0.80;;;2.20;37.00;;;;;;4955074;28;20176;-70
2024/01/18 11:12:06;;;;;;;1.83;1.00;;;2.10;35.70;;;;;;4955198;29;20183;-70
2024/01/18 11:14:32;;;;;;;2.00;1.10;;;2.10;36.60;;;;;;4953704;28;20180;-69
2024/01/18 11:17:14;;;;;;;1.90;1.00;;;2.00;36.80;;;;;;4954748;28;20189;-69
2024/01/18 11:19:44;;;;;;;2.65;1.33;;;2.00;38.90;;;;;;4954831;28;20199;-69
2024/01/18 11:22:26;;;;;;;2.70;1.63;;;2.00;37.70;;;;;;4954960;29;20198;-70
2024/01/18 11:24:53;;;;;;;1.52;0.70;;;2.00;37.80;;;;;;4954964;28;20648;-69
2024/01/18 11:27:23;;;;;;;1.70;0.95;;;2.00;37.50;;;;;;4954848;29;20206;-69
2024/01/18 11:29:49;;;;;;;1.50;0.70;;;2.00;37.20;;;;;;4955040;28;20650;-70
2024/01/18 11:32:18;;;;;;;1.48;0.73;;;2.00;35.60;;;;;;4954835;28;20220;-70
2024/01/18 11:34:45;;;;;;;1.60;0.70;;;1.90;35.90;;;;;;4954706;29;20202;-72
2024/01/18 11:37:16;;;;;;;1.70;0.93;;;1.90;36.00;;;;;;4954817;29;20195;-69
2024/01/18 11:39:47;;;;;;;1.40;0.73;;;1.80;35.10;;;;;;4954937;28;20174;-69
2024/01/18 11:42:20;;;;;;;1.70;0.77;;;1.70;35.40;;;;;;4954883;29;20689;-68
2024/01/18 11:45:24;;;;;;;1.73;0.88;;;1.80;36.90;;;;;;4955032;29;20179;-69
2024/01/18 11:47:49;;;;;;;1.98;1.02;;;1.80;35.50;;;;;;4914066;29;20184;-70
2024/01/18 11:50:17;;;;;;;2.50;1.00;;;1.80;35.50;;;;;;4914064;29;20207;-69
2024/01/18 11:52:43;;;;;;;1.67;1.00;;;1.80;35.90;;;;;;4933401;29;20584;-70
2024/01/18 11:55:17;;;;;;;1.85;0.80;;;1.90;36.70;;;;;;4954477;29;20175;-70
2024/01/18 11:57:43;;;;;;;1.65;0.80;;;2.00;33.20;;;;;;4954668;29;20239;-69
2024/01/18 12:00:12;;;;;;;3.40;1.15;;;2.00;34.30;;;;;;4954305;28;20211;-70
2024/01/18 12:02:38;;;;;;;1.60;0.60;;;2.10;32.80;;;;;;4954434;29;20672;-69
2024/01/18 12:05:04;;;;;;;2.07;1.10;;;2.20;32.70;;;;;;4954035;29;20180;-69
2024/01/18 12:07:32;;;;;;;1.70;0.90;;;2.00;29.30;;;;;;4954177;29;20289;-71
2024/01/18 12:09:57;;;;;;;4.03;2.35;;;2.00;31.20;;;;;;4953914;28;20255;-69
2024/01/18 12:12:24;;;;;;;4.17;2.73;;;2.00;30.50;;;;;;4954014;29;20173;-69
2024/01/18 12:14:49;;;;;;;6.20;3.88;;;2.00;30.50;;;;;;4952511;29;20182;-69
2024/01/18 12:17:16;;;;;;;2.87;1.70;;;2.10;32.20;;;;;;4953044;29;20668;-69
2024/01/18 12:19:44;;;;;;;2.80;1.60;;;2.10;30.60;;;;;;4953759;28;20190;-69
2024/01/18 12:22:17;;;;;;;2.97;1.35;;;2.00;29.00;;;;;;4953989;29;20489;-70
2024/01/18 12:24:44;;;;;;;2.08;0.85;;;2.00;29.80;;;;;;4953573;29;20180;-69
2024/01/18 12:27:10;;;;;;;1.77;0.82;;;2.00;30.40;;;;;;4953543;28;20246;-70
2024/01/18 12:29:38;;;;;;;2.00;1.30;;;2.10;31.60;;;;;;4953311;28;20528;-70
2024/01/18 12:32:04;;;;;;;1.92;1.45;;;2.20;30.60;;;;;;4954370;29;20240;-69
2024/01/18 12:34:32;;;;;;;1.80;1.13;;;2.20;30.00;;;;;;4953847;28;20181;-70
2024/01/18 12:37:02;;;;;;;1.58;0.80;;;2.20;29.70;;;;;;4953937;28;20420;-68
2024/01/18 12:39:30;;;;;;;1.70;0.98;;;2.40;29.50;;;;;;4954380;28;20202;-69
2024/01/18 12:41:56;;;;;;;2.15;1.02;;;2.40;27.70;;;;;;4953814;28;20278;-69
2024/01/18 12:44:22;;;;;;;1.60;0.83;;;2.30;27.30;;;;;;4953626;29;20681;-68
2024/01/18 12:46:50;;;;;;;2.17;0.98;;;2.30;28.30;;;;;;4953763;28;20824;-70
2024/01/18 12:49:18;;;;;;;2.53;1.30;;;2.30;28.40;;;;;;4953774;29;20303;-71
2024/01/18 12:51:55;;;;;;;2.97;1.60;;;2.20;27.20;;;;;;4953833;28;20211;-70